Degelis, Canada
Current Conditions -  °F | °C
As of 2:06 PM on Tuesday 27 Jan 2015 (Local Time) from KFVE Reporting Station
Light Snow Light Snow  
Wind Chill: -14°   Ceiling: 1900
Heat Index:   Visibility: 1mi
Dew Point: -2°   Wind: 15mph
Humidity: 76%   Direction: 30°NNE
Pressure: 29.94"   Gusts: 26mph
Location:  47.55°N, 68.64°W
Report Text: KFVE 271906Z AUTO 03013G23KT 1SM -SN VV019 M16/M19 A2994 RMK AO2 P0000 T11561189
Loading
Personal Weather Stations






























Interactive Weather Map New forecast layout! Learn more

10-Day Weather Forecast

Advertisements
Track Severe Weather on mobile